sensor_id;sensor_type;location;lat;lon;timestamp;P1;durP1;ratioP1;P2;durP2;ratioP2
72926;SDS011;61071;51.618;19.388;2022-11-15T00:00:53;111.85;;;44.55;;
72926;SDS011;61071;51.618;19.388;2022-11-15T00:03:23;112.20;;;44.17;;
72926;SDS011;61071;51.618;19.388;2022-11-15T00:05:51;115.15;;;42.70;;
72926;SDS011;61071;51.618;19.388;2022-11-15T00:08:17;129.32;;;43.97;;
72926;SDS011;61071;51.618;19.388;2022-11-15T00:10:53;182.80;;;48.47;;
72926;SDS011;61071;51.618;19.388;2022-11-15T00:13:20;132.35;;;43.70;;
72926;SDS011;61071;51.618;19.388;2022-11-15T00:15:46;117.55;;;42.97;;
72926;SDS011;61071;51.618;19.388;2022-11-15T00:18:12;124.22;;;45.28;;
72926;SDS011;61071;51.618;19.388;2022-11-15T00:20:39;121.97;;;44.00;;
72926;SDS011;61071;51.618;19.388;2022-11-15T00:23:06;121.78;;;45.30;;
72926;SDS011;61071;51.618;19.388;2022-11-15T00:25:32;121.82;;;41.20;;
72926;SDS011;61071;51.618;19.388;2022-11-15T00:27:58;98.13;;;41.95;;
72926;SDS011;61071;51.618;19.388;2022-11-15T00:30:25;140.43;;;43.10;;
72926;SDS011;61071;51.618;19.388;2022-11-15T00:32:52;129.20;;;42.72;;
72926;SDS011;61071;51.618;19.388;2022-11-15T00:35:18;136.00;;;39.75;;
72926;SDS011;61071;51.618;19.388;2022-11-15T00:37:44;119.47;;;43.33;;
72926;SDS011;61071;51.618;19.388;2022-11-15T00:40:12;119.18;;;40.72;;
72926;SDS011;61071;51.618;19.388;2022-11-15T00:42:39;109.00;;;40.10;;
72926;SDS011;61071;51.618;19.388;2022-11-15T00:45:05;144.07;;;41.85;;
72926;SDS011;61071;51.618;19.388;2022-11-15T00:47:32;120.75;;;39.38;;
72926;SDS011;61071;51.618;19.388;2022-11-15T00:49:57;150.32;;;41.13;;
72926;SDS011;61071;51.618;19.388;2022-11-15T00:52:23;103.15;;;35.72;;
72926;SDS011;61071;51.618;19.388;2022-11-15T00:54:49;115.45;;;38.97;;
72926;SDS011;61071;51.618;19.388;2022-11-15T00:57:14;85.72;;;36.72;;
72926;SDS011;61071;51.618;19.388;2022-11-15T00:59:40;95.50;;;38.08;;
72926;SDS011;61071;51.618;19.388;2022-11-15T01:02:06;108.70;;;36.17;;
72926;SDS011;61071;51.618;19.388;2022-11-15T01:04:31;101.65;;;34.08;;
72926;SDS011;61071;51.618;19.388;2022-11-15T01:06:57;88.53;;;34.22;;
72926;SDS011;61071;51.618;19.388;2022-11-15T01:09:23;92.47;;;33.97;;
72926;SDS011;61071;51.618;19.388;2022-11-15T01:11:49;108.13;;;36.33;;
72926;SDS011;61071;51.618;19.388;2022-11-15T01:14:14;113.18;;;35.30;;
72926;SDS011;61071;51.618;19.388;2022-11-15T01:16:40;125.45;;;33.38;;
72926;SDS011;61071;51.618;19.388;2022-11-15T01:19:06;116.13;;;33.97;;
72926;SDS011;61071;51.618;19.388;2022-11-15T01:21:31;111.22;;;34.17;;
72926;SDS011;61071;51.618;19.388;2022-11-15T01:23:57;139.40;;;37.28;;
72926;SDS011;61071;51.618;19.388;2022-11-15T01:26:23;148.70;;;38.17;;
72926;SDS011;61071;51.618;19.388;2022-11-15T01:28:50;138.05;;;36.55;;
72926;SDS011;61071;51.618;19.388;2022-11-15T01:31:16;195.73;;;42.47;;
72926;SDS011;61071;51.618;19.388;2022-11-15T01:33:45;161.93;;;40.38;;
72926;SDS011;61071;51.618;19.388;2022-11-15T01:36:20;181.90;;;40.70;;
72926;SDS011;61071;51.618;19.388;2022-11-15T01:38:52;159.40;;;38.47;;
72926;SDS011;61071;51.618;19.388;2022-11-15T01:41:30;132.57;;;36.60;;
72926;SDS011;61071;51.618;19.388;2022-11-15T01:47:11;115.20;;;35.17;;
72926;SDS011;61071;51.618;19.388;2022-11-15T01:49:47;98.05;;;32.45;;
72926;SDS011;61071;51.618;19.388;2022-11-15T01:52:29;93.82;;;31.02;;
72926;SDS011;61071;51.618;19.388;2022-11-15T01:57:37;91.22;;;33.00;;
72926;SDS011;61071;51.618;19.388;2022-11-15T02:00:04;92.97;;;31.13;;
72926;SDS011;61071;51.618;19.388;2022-11-15T02:02:32;124.30;;;31.38;;
72926;SDS011;61071;51.618;19.388;2022-11-15T02:05:00;113.43;;;33.47;;
72926;SDS011;61071;51.618;19.388;2022-11-15T02:07:26;142.82;;;33.40;;
72926;SDS011;61071;51.618;19.388;2022-11-15T02:09:56;123.75;;;31.40;;
72926;SDS011;61071;51.618;19.388;2022-11-15T02:12:32;112.72;;;29.67;;
72926;SDS011;61071;51.618;19.388;2022-11-15T02:14:59;141.13;;;29.77;;
72926;SDS011;61071;51.618;19.388;2022-11-15T02:20:42;143.93;;;32.47;;
72926;SDS011;61071;51.618;19.388;2022-11-15T02:29:11;98.72;;;29.63;;
72926;SDS011;61071;51.618;19.388;2022-11-15T02:35:02;73.45;;;28.17;;
72926;SDS011;61071;51.618;19.388;2022-11-15T02:37:55;67.40;;;26.95;;
72926;SDS011;61071;51.618;19.388;2022-11-15T02:40:44;74.63;;;27.45;;
72926;SDS011;61071;51.618;19.388;2022-11-15T02:43:22;77.05;;;26.92;;
72926;SDS011;61071;51.618;19.388;2022-11-15T02:46:23;80.65;;;27.35;;
72926;SDS011;61071;51.618;19.388;2022-11-15T02:49:23;71.32;;;25.88;;
72926;SDS011;61071;51.618;19.388;2022-11-15T02:51:54;99.65;;;26.02;;
72926;SDS011;61071;51.618;19.388;2022-11-15T02:54:25;100.80;;;28.58;;
72926;SDS011;61071;51.618;19.388;2022-11-15T02:56:56;87.47;;;26.85;;
72926;SDS011;61071;51.618;19.388;2022-11-15T03:06:09;83.65;;;25.98;;
72926;SDS011;61071;51.618;19.388;2022-11-15T03:11:29;77.95;;;25.15;;
72926;SDS011;61071;51.618;19.388;2022-11-15T03:17:11;64.07;;;24.83;;
72926;SDS011;61071;51.618;19.388;2022-11-15T03:19:53;56.58;;;24.92;;
72926;SDS011;61071;51.618;19.388;2022-11-15T03:22:22;65.10;;;24.85;;
72926;SDS011;61071;51.618;19.388;2022-11-15T03:24:56;94.68;;;25.73;;
72926;SDS011;61071;51.618;19.388;2022-11-15T03:27:28;119.45;;;28.08;;
72926;SDS011;61071;51.618;19.388;2022-11-15T03:30:02;100.45;;;27.17;;
72926;SDS011;61071;51.618;19.388;2022-11-15T03:32:34;73.18;;;25.55;;
72926;SDS011;61071;51.618;19.388;2022-11-15T03:35:11;68.18;;;24.45;;
72926;SDS011;61071;51.618;19.388;2022-11-15T03:40:40;69.13;;;25.75;;
72926;SDS011;61071;51.618;19.388;2022-11-15T03:46:13;68.70;;;26.10;;
72926;SDS011;61071;51.618;19.388;2022-11-15T03:48:47;94.95;;;24.17;;
72926;SDS011;61071;51.618;19.388;2022-11-15T03:51:19;86.70;;;24.55;;
72926;SDS011;61071;51.618;19.388;2022-11-15T03:53:46;60.55;;;24.35;;
72926;SDS011;61071;51.618;19.388;2022-11-15T03:56:12;83.95;;;25.70;;
72926;SDS011;61071;51.618;19.388;2022-11-15T03:58:37;83.32;;;26.35;;
72926;SDS011;61071;51.618;19.388;2022-11-15T04:01:03;74.78;;;25.05;;
72926;SDS011;61071;51.618;19.388;2022-11-15T04:03:29;82.03;;;25.27;;
72926;SDS011;61071;51.618;19.388;2022-11-15T04:05:54;99.70;;;26.27;;
72926;SDS011;61071;51.618;19.388;2022-11-15T04:08:20;87.70;;;26.25;;
72926;SDS011;61071;51.618;19.388;2022-11-15T04:10:48;75.68;;;24.52;;
72926;SDS011;61071;51.618;19.388;2022-11-15T04:13:14;75.00;;;26.35;;
72926;SDS011;61071;51.618;19.388;2022-11-15T04:15:40;63.33;;;25.42;;
72926;SDS011;61071;51.618;19.388;2022-11-15T04:18:06;80.90;;;25.15;;
72926;SDS011;61071;51.618;19.388;2022-11-15T04:20:32;112.63;;;28.52;;
72926;SDS011;61071;51.618;19.388;2022-11-15T04:23:20;101.85;;;26.02;;
72926;SDS011;61071;51.618;19.388;2022-11-15T04:26:07;95.25;;;26.33;;
72926;SDS011;61071;51.618;19.388;2022-11-15T04:28:37;74.93;;;26.67;;
72926;SDS011;61071;51.618;19.388;2022-11-15T04:31:22;86.43;;;25.63;;
72926;SDS011;61071;51.618;19.388;2022-11-15T04:33:48;84.63;;;26.27;;
72926;SDS011;61071;51.618;19.388;2022-11-15T04:36:13;87.32;;;24.45;;
72926;SDS011;61071;51.618;19.388;2022-11-15T04:38:58;95.85;;;23.70;;
72926;SDS011;61071;51.618;19.388;2022-11-15T04:41:23;100.55;;;26.45;;
72926;SDS011;61071;51.618;19.388;2022-11-15T04:43:49;80.03;;;26.23;;
72926;SDS011;61071;51.618;19.388;2022-11-15T04:46:15;79.53;;;24.77;;
72926;SDS011;61071;51.618;19.388;2022-11-15T04:48:40;83.05;;;25.05;;
72926;SDS011;61071;51.618;19.388;2022-11-15T04:51:06;87.15;;;25.95;;
72926;SDS011;61071;51.618;19.388;2022-11-15T04:53:32;85.20;;;25.27;;
72926;SDS011;61071;51.618;19.388;2022-11-15T04:55:57;75.13;;;24.23;;
72926;SDS011;61071;51.618;19.388;2022-11-15T04:58:23;59.80;;;23.23;;
72926;SDS011;61071;51.618;19.388;2022-11-15T05:00:49;78.15;;;23.58;;
72926;SDS011;61071;51.618;19.388;2022-11-15T05:03:14;72.03;;;24.23;;
72926;SDS011;61071;51.618;19.388;2022-11-15T05:05:59;90.30;;;24.27;;
72926;SDS011;61071;51.618;19.388;2022-11-15T05:08:25;91.55;;;24.92;;
72926;SDS011;61071;51.618;19.388;2022-11-15T05:10:51;144.93;;;28.77;;
72926;SDS011;61071;51.618;19.388;2022-11-15T05:13:17;90.95;;;26.02;;
72926;SDS011;61071;51.618;19.388;2022-11-15T05:15:42;83.85;;;23.70;;
72926;SDS011;61071;51.618;19.388;2022-11-15T05:18:09;70.93;;;24.67;;
72926;SDS011;61071;51.618;19.388;2022-11-15T05:20:34;81.85;;;23.55;;
72926;SDS011;61071;51.618;19.388;2022-11-15T05:23:00;65.55;;;24.73;;
72926;SDS011;61071;51.618;19.388;2022-11-15T05:25:26;106.45;;;27.13;;
72926;SDS011;61071;51.618;19.388;2022-11-15T05:27:52;120.68;;;26.50;;
72926;SDS011;61071;51.618;19.388;2022-11-15T05:30:18;77.72;;;24.52;;
72926;SDS011;61071;51.618;19.388;2022-11-15T05:32:44;83.88;;;24.83;;
72926;SDS011;61071;51.618;19.388;2022-11-15T05:35:12;74.18;;;24.27;;
72926;SDS011;61071;51.618;19.388;2022-11-15T05:37:51;91.38;;;25.83;;
72926;SDS011;61071;51.618;19.388;2022-11-15T05:40:16;71.85;;;24.52;;
72926;SDS011;61071;51.618;19.388;2022-11-15T05:42:42;113.45;;;27.15;;
72926;SDS011;61071;51.618;19.388;2022-11-15T05:45:09;111.25;;;25.95;;
72926;SDS011;61071;51.618;19.388;2022-11-15T05:47:35;167.35;;;29.48;;
72926;SDS011;61071;51.618;19.388;2022-11-15T05:50:04;106.25;;;26.58;;
72926;SDS011;61071;51.618;19.388;2022-11-15T05:52:31;116.95;;;27.98;;
72926;SDS011;61071;51.618;19.388;2022-11-15T05:55:02;73.30;;;25.55;;
72926;SDS011;61071;51.618;19.388;2022-11-15T05:57:31;79.13;;;24.85;;
72926;SDS011;61071;51.618;19.388;2022-11-15T05:59:57;79.50;;;23.98;;
72926;SDS011;61071;51.618;19.388;2022-11-15T06:02:23;87.82;;;24.92;;
72926;SDS011;61071;51.618;19.388;2022-11-15T06:04:49;74.10;;;25.02;;
72926;SDS011;61071;51.618;19.388;2022-11-15T06:07:14;70.82;;;25.45;;
72926;SDS011;61071;51.618;19.388;2022-11-15T06:09:40;96.15;;;24.58;;
72926;SDS011;61071;51.618;19.388;2022-11-15T06:12:06;113.82;;;25.30;;
72926;SDS011;61071;51.618;19.388;2022-11-15T06:14:32;98.57;;;25.45;;
72926;SDS011;61071;51.618;19.388;2022-11-15T06:16:57;55.17;;;23.40;;
72926;SDS011;61071;51.618;19.388;2022-11-15T06:19:23;74.47;;;26.20;;
72926;SDS011;61071;51.618;19.388;2022-11-15T06:21:49;94.68;;;24.77;;
72926;SDS011;61071;51.618;19.388;2022-11-15T06:24:14;70.35;;;24.17;;
72926;SDS011;61071;51.618;19.388;2022-11-15T06:26:40;91.53;;;24.80;;
72926;SDS011;61071;51.618;19.388;2022-11-15T06:29:06;74.28;;;25.33;;
72926;SDS011;61071;51.618;19.388;2022-11-15T06:31:32;87.75;;;24.98;;
72926;SDS011;61071;51.618;19.388;2022-11-15T06:33:59;90.95;;;26.23;;
72926;SDS011;61071;51.618;19.388;2022-11-15T06:36:25;89.35;;;26.13;;
72926;SDS011;61071;51.618;19.388;2022-11-15T06:38:51;94.53;;;25.45;;
72926;SDS011;61071;51.618;19.388;2022-11-15T06:41:17;77.47;;;23.98;;
72926;SDS011;61071;51.618;19.388;2022-11-15T06:43:43;88.18;;;25.63;;
72926;SDS011;61071;51.618;19.388;2022-11-15T06:46:09;90.75;;;24.67;;
72926;SDS011;61071;51.618;19.388;2022-11-15T06:48:35;118.03;;;27.13;;
72926;SDS011;61071;51.618;19.388;2022-11-15T06:51:01;107.45;;;26.23;;
72926;SDS011;61071;51.618;19.388;2022-11-15T06:53:29;93.60;;;26.67;;
72926;SDS011;61071;51.618;19.388;2022-11-15T06:56:02;124.63;;;28.35;;
72926;SDS011;61071;51.618;19.388;2022-11-15T06:58:31;67.63;;;25.75;;
72926;SDS011;61071;51.618;19.388;2022-11-15T07:00:58;124.70;;;28.95;;
72926;SDS011;61071;51.618;19.388;2022-11-15T07:03:40;103.25;;;27.85;;
72926;SDS011;61071;51.618;19.388;2022-11-15T07:06:08;75.38;;;26.80;;
72926;SDS011;61071;51.618;19.388;2022-11-15T07:08:34;57.47;;;26.65;;
72926;SDS011;61071;51.618;19.388;2022-11-15T07:11:01;78.35;;;25.83;;
72926;SDS011;61071;51.618;19.388;2022-11-15T07:13:31;79.03;;;26.02;;
72926;SDS011;61071;51.618;19.388;2022-11-15T07:15:58;62.47;;;26.67;;
72926;SDS011;61071;51.618;19.388;2022-11-15T07:18:33;85.90;;;26.85;;
72926;SDS011;61071;51.618;19.388;2022-11-15T07:21:04;72.32;;;26.95;;
72926;SDS011;61071;51.618;19.388;2022-11-15T07:23:35;56.25;;;24.85;;
72926;SDS011;61071;51.618;19.388;2022-11-15T07:26:03;52.20;;;24.80;;
72926;SDS011;61071;51.618;19.388;2022-11-15T07:28:29;49.63;;;25.30;;
72926;SDS011;61071;51.618;19.388;2022-11-15T07:30:55;54.10;;;25.38;;
72926;SDS011;61071;51.618;19.388;2022-11-15T07:33:20;52.83;;;25.48;;
72926;SDS011;61071;51.618;19.388;2022-11-15T07:35:47;53.00;;;26.10;;
72926;SDS011;61071;51.618;19.388;2022-11-15T07:38:16;54.22;;;25.30;;
72926;SDS011;61071;51.618;19.388;2022-11-15T07:40:45;50.13;;;25.23;;
72926;SDS011;61071;51.618;19.388;2022-11-15T07:43:12;46.67;;;24.92;;
72926;SDS011;61071;51.618;19.388;2022-11-15T07:45:44;50.22;;;25.60;;
72926;SDS011;61071;51.618;19.388;2022-11-15T07:48:10;46.92;;;25.98;;
72926;SDS011;61071;51.618;19.388;2022-11-15T07:50:36;52.35;;;27.13;;
72926;SDS011;61071;51.618;19.388;2022-11-15T07:53:07;50.97;;;26.02;;
72926;SDS011;61071;51.618;19.388;2022-11-15T07:55:34;49.38;;;26.00;;
72926;SDS011;61071;51.618;19.388;2022-11-15T07:58:00;49.97;;;27.08;;
72926;SDS011;61071;51.618;19.388;2022-11-15T08:00:31;53.90;;;27.25;;
72926;SDS011;61071;51.618;19.388;2022-11-15T08:03:08;47.80;;;26.15;;
72926;SDS011;61071;51.618;19.388;2022-11-15T08:05:37;50.72;;;26.27;;
72926;SDS011;61071;51.618;19.388;2022-11-15T08:08:04;46.33;;;26.58;;
72926;SDS011;61071;51.618;19.388;2022-11-15T08:10:31;47.53;;;26.40;;
72926;SDS011;61071;51.618;19.388;2022-11-15T08:12:58;49.30;;;26.60;;
72926;SDS011;61071;51.618;19.388;2022-11-15T08:15:29;46.38;;;25.73;;
72926;SDS011;61071;51.618;19.388;2022-11-15T08:17:56;45.45;;;25.23;;
72926;SDS011;61071;51.618;19.388;2022-11-15T08:20:24;44.08;;;25.27;;
72926;SDS011;61071;51.618;19.388;2022-11-15T08:22:55;45.63;;;25.10;;
72926;SDS011;61071;51.618;19.388;2022-11-15T08:25:25;44.07;;;26.03;;
72926;SDS011;61071;51.618;19.388;2022-11-15T08:27:55;43.60;;;24.52;;
72926;SDS011;61071;51.618;19.388;2022-11-15T08:30:22;46.53;;;25.50;;
72926;SDS011;61071;51.618;19.388;2022-11-15T08:32:49;41.08;;;23.98;;
72926;SDS011;61071;51.618;19.388;2022-11-15T08:35:17;60.33;;;24.98;;
72926;SDS011;61071;51.618;19.388;2022-11-15T08:37:44;45.97;;;26.30;;
72926;SDS011;61071;51.618;19.388;2022-11-15T08:40:10;45.58;;;25.27;;
72926;SDS011;61071;51.618;19.388;2022-11-15T08:42:36;38.17;;;22.92;;
72926;SDS011;61071;51.618;19.388;2022-11-15T08:45:02;44.20;;;25.60;;
72926;SDS011;61071;51.618;19.388;2022-11-15T08:47:29;41.20;;;23.27;;
72926;SDS011;61071;51.618;19.388;2022-11-15T08:49:55;39.28;;;22.88;;
72926;SDS011;61071;51.618;19.388;2022-11-15T08:52:20;40.05;;;23.13;;
72926;SDS011;61071;51.618;19.388;2022-11-15T08:54:46;38.45;;;22.33;;
72926;SDS011;61071;51.618;19.388;2022-11-15T08:57:12;43.55;;;22.98;;
72926;SDS011;61071;51.618;19.388;2022-11-15T08:59:38;34.13;;;20.98;;
72926;SDS011;61071;51.618;19.388;2022-11-15T09:02:04;37.97;;;23.20;;
72926;SDS011;61071;51.618;19.388;2022-11-15T09:04:30;37.22;;;22.52;;
72926;SDS011;61071;51.618;19.388;2022-11-15T09:06:56;37.97;;;22.30;;
72926;SDS011;61071;51.618;19.388;2022-11-15T09:09:22;36.90;;;22.73;;
72926;SDS011;61071;51.618;19.388;2022-11-15T09:11:47;40.40;;;22.83;;
72926;SDS011;61071;51.618;19.388;2022-11-15T09:14:14;41.90;;;23.02;;
72926;SDS011;61071;51.618;19.388;2022-11-15T09:16:40;38.05;;;23.20;;
72926;SDS011;61071;51.618;19.388;2022-11-15T09:19:06;40.03;;;22.83;;
72926;SDS011;61071;51.618;19.388;2022-11-15T09:21:32;39.45;;;23.23;;
72926;SDS011;61071;51.618;19.388;2022-11-15T09:23:58;43.08;;;24.02;;
72926;SDS011;61071;51.618;19.388;2022-11-15T09:26:24;40.53;;;24.75;;
72926;SDS011;61071;51.618;19.388;2022-11-15T09:28:50;39.90;;;23.30;;
72926;SDS011;61071;51.618;19.388;2022-11-15T09:31:15;40.90;;;23.63;;
72926;SDS011;61071;51.618;19.388;2022-11-15T09:33:44;44.25;;;23.77;;
72926;SDS011;61071;51.618;19.388;2022-11-15T09:36:11;40.60;;;24.10;;
72926;SDS011;61071;51.618;19.388;2022-11-15T09:38:37;42.40;;;23.17;;
72926;SDS011;61071;51.618;19.388;2022-11-15T09:49:20;37.55;;;22.45;;
72926;SDS011;61071;51.618;19.388;2022-11-15T09:51:47;35.72;;;22.40;;
72926;SDS011;61071;51.618;19.388;2022-11-15T09:54:19;36.10;;;22.73;;
72926;SDS011;61071;51.618;19.388;2022-11-15T09:57:09;36.55;;;22.58;;
72926;SDS011;61071;51.618;19.388;2022-11-15T09:59:46;34.75;;;20.60;;
72926;SDS011;61071;51.618;19.388;2022-11-15T10:02:31;38.63;;;22.73;;
72926;SDS011;61071;51.618;19.388;2022-11-15T10:05:23;38.70;;;22.15;;
72926;SDS011;61071;51.618;19.388;2022-11-15T10:11:09;35.33;;;22.83;;
72926;SDS011;61071;51.618;19.388;2022-11-15T10:13:40;32.58;;;21.40;;
72926;SDS011;61071;51.618;19.388;2022-11-15T10:19:30;34.13;;;21.25;;
72926;SDS011;61071;51.618;19.388;2022-11-15T10:22:55;30.48;;;19.40;;
72926;SDS011;61071;51.618;19.388;2022-11-15T10:25:26;31.35;;;19.85;;
72926;SDS011;61071;51.618;19.388;2022-11-15T10:30:41;30.83;;;20.05;;
72926;SDS011;61071;51.618;19.388;2022-11-15T10:33:32;32.72;;;20.65;;
72926;SDS011;61071;51.618;19.388;2022-11-15T10:41:28;29.20;;;17.88;;
72926;SDS011;61071;51.618;19.388;2022-11-15T10:46:35;29.45;;;18.27;;
72926;SDS011;61071;51.618;19.388;2022-11-15T10:52:01;32.30;;;19.52;;
72926;SDS011;61071;51.618;19.388;2022-11-15T10:54:43;30.77;;;19.40;;
72926;SDS011;61071;51.618;19.388;2022-11-15T10:57:31;33.45;;;20.92;;
72926;SDS011;61071;51.618;19.388;2022-11-15T11:03:02;32.33;;;19.02;;
72926;SDS011;61071;51.618;19.388;2022-11-15T11:05:36;26.55;;;18.02;;
72926;SDS011;61071;51.618;19.388;2022-11-15T11:10:36;30.27;;;19.42;;
72926;SDS011;61071;51.618;19.388;2022-11-15T11:13:12;45.80;;;19.70;;
72926;SDS011;61071;51.618;19.388;2022-11-15T11:15:55;30.65;;;18.38;;
72926;SDS011;61071;51.618;19.388;2022-11-15T11:18:33;29.83;;;17.60;;
72926;SDS011;61071;51.618;19.388;2022-11-15T11:21:13;31.30;;;18.67;;
72926;SDS011;61071;51.618;19.388;2022-11-15T11:40:51;26.52;;;17.65;;
72926;SDS011;61071;51.618;19.388;2022-11-15T11:49:23;26.83;;;16.95;;
72926;SDS011;61071;51.618;19.388;2022-11-15T11:52:18;25.75;;;16.25;;
72926;SDS011;61071;51.618;19.388;2022-11-15T11:58:17;25.92;;;16.73;;
72926;SDS011;61071;51.618;19.388;2022-11-15T12:04:38;23.10;;;15.50;;
72926;SDS011;61071;51.618;19.388;2022-11-15T12:12:55;28.90;;;18.85;;
72926;SDS011;61071;51.618;19.388;2022-11-15T12:15:36;30.20;;;19.42;;
72926;SDS011;61071;51.618;19.388;2022-11-15T12:18:13;26.58;;;17.40;;
72926;SDS011;61071;51.618;19.388;2022-11-15T12:20:43;28.10;;;18.02;;
72926;SDS011;61071;51.618;19.388;2022-11-15T12:23:25;29.17;;;17.58;;
72926;SDS011;61071;51.618;19.388;2022-11-15T12:29:19;33.95;;;19.27;;
72926;SDS011;61071;51.618;19.388;2022-11-15T12:32:24;28.13;;;17.42;;
72926;SDS011;61071;51.618;19.388;2022-11-15T12:40:04;32.10;;;19.00;;
72926;SDS011;61071;51.618;19.388;2022-11-15T12:42:59;33.28;;;19.50;;
72926;SDS011;61071;51.618;19.388;2022-11-15T12:45:47;29.60;;;19.20;;
72926;SDS011;61071;51.618;19.388;2022-11-15T12:58:58;29.20;;;19.42;;
72926;SDS011;61071;51.618;19.388;2022-11-15T13:12:02;28.30;;;20.48;;
72926;SDS011;61071;51.618;19.388;2022-11-15T13:28:33;28.33;;;17.48;;
72926;SDS011;61071;51.618;19.388;2022-11-15T13:33:53;36.33;;;19.52;;
72926;SDS011;61071;51.618;19.388;2022-11-15T13:36:28;25.85;;;17.33;;
72926;SDS011;61071;51.618;19.388;2022-11-15T13:39:12;29.55;;;17.92;;
72926;SDS011;61071;51.618;19.388;2022-11-15T13:41:55;28.38;;;17.02;;
72926;SDS011;61071;51.618;19.388;2022-11-15T13:44:23;24.80;;;17.60;;
72926;SDS011;61071;51.618;19.388;2022-11-15T13:49:40;29.05;;;17.90;;
72926;SDS011;61071;51.618;19.388;2022-11-15T13:52:08;26.85;;;17.90;;
72926;SDS011;61071;51.618;19.388;2022-11-15T13:57:24;28.23;;;17.95;;
72926;SDS011;61071;51.618;19.388;2022-11-15T14:00:05;36.13;;;19.50;;
72926;SDS011;61071;51.618;19.388;2022-11-15T14:03:05;34.28;;;21.92;;
72926;SDS011;61071;51.618;19.388;2022-11-15T14:06:03;39.88;;;21.38;;
72926;SDS011;61071;51.618;19.388;2022-11-15T14:08:38;50.30;;;24.30;;
72926;SDS011;61071;51.618;19.388;2022-11-15T14:11:24;40.45;;;23.67;;
72926;SDS011;61071;51.618;19.388;2022-11-15T14:16:35;41.45;;;23.00;;
72926;SDS011;61071;51.618;19.388;2022-11-15T14:19:03;39.08;;;21.33;;
72926;SDS011;61071;51.618;19.388;2022-11-15T14:21:32;37.58;;;21.45;;
72926;SDS011;61071;51.618;19.388;2022-11-15T14:26:44;43.03;;;22.88;;
72926;SDS011;61071;51.618;19.388;2022-11-15T14:29:43;30.40;;;19.92;;
72926;SDS011;61071;51.618;19.388;2022-11-15T14:32:21;29.15;;;17.02;;
72926;SDS011;61071;51.618;19.388;2022-11-15T14:34:58;28.08;;;18.60;;
72926;SDS011;61071;51.618;19.388;2022-11-15T14:37:28;26.60;;;15.73;;
72926;SDS011;61071;51.618;19.388;2022-11-15T14:40:04;25.48;;;16.67;;
72926;SDS011;61071;51.618;19.388;2022-11-15T14:42:31;26.05;;;15.85;;
72926;SDS011;61071;51.618;19.388;2022-11-15T14:44:57;25.15;;;16.38;;
72926;SDS011;61071;51.618;19.388;2022-11-15T14:47:23;29.92;;;17.55;;
72926;SDS011;61071;51.618;19.388;2022-11-15T14:49:49;28.65;;;17.13;;
72926;SDS011;61071;51.618;19.388;2022-11-15T14:52:27;27.50;;;17.73;;
72926;SDS011;61071;51.618;19.388;2022-11-15T14:54:55;26.95;;;16.50;;
72926;SDS011;61071;51.618;19.388;2022-11-15T14:57:23;27.02;;;17.50;;
72926;SDS011;61071;51.618;19.388;2022-11-15T14:59:49;33.42;;;18.63;;
72926;SDS011;61071;51.618;19.388;2022-11-15T15:02:19;25.83;;;16.52;;
72926;SDS011;61071;51.618;19.388;2022-11-15T15:04:47;28.15;;;18.02;;
72926;SDS011;61071;51.618;19.388;2022-11-15T15:07:15;24.73;;;16.38;;
72926;SDS011;61071;51.618;19.388;2022-11-15T15:09:41;24.77;;;16.98;;
72926;SDS011;61071;51.618;19.388;2022-11-15T15:12:13;28.30;;;16.08;;
72926;SDS011;61071;51.618;19.388;2022-11-15T15:14:48;30.17;;;17.38;;
72926;SDS011;61071;51.618;19.388;2022-11-15T15:17:15;29.80;;;17.42;;
72926;SDS011;61071;51.618;19.388;2022-11-15T15:19:42;26.42;;;15.88;;
72926;SDS011;61071;51.618;19.388;2022-11-15T15:22:18;28.15;;;17.35;;
72926;SDS011;61071;51.618;19.388;2022-11-15T15:24:47;24.95;;;15.52;;
72926;SDS011;61071;51.618;19.388;2022-11-15T15:27:13;23.70;;;15.32;;
72926;SDS011;61071;51.618;19.388;2022-11-15T15:29:39;27.75;;;16.38;;
72926;SDS011;61071;51.618;19.388;2022-11-15T15:32:05;28.67;;;16.15;;
72926;SDS011;61071;51.618;19.388;2022-11-15T15:34:32;28.42;;;16.45;;
72926;SDS011;61071;51.618;19.388;2022-11-15T15:37:07;31.27;;;17.38;;
72926;SDS011;61071;51.618;19.388;2022-11-15T15:39:53;27.00;;;15.88;;
72926;SDS011;61071;51.618;19.388;2022-11-15T15:42:21;27.27;;;16.10;;
72926;SDS011;61071;51.618;19.388;2022-11-15T15:44:48;25.77;;;15.80;;
72926;SDS011;61071;51.618;19.388;2022-11-15T15:47:16;32.47;;;16.52;;
72926;SDS011;61071;51.618;19.388;2022-11-15T15:49:46;33.10;;;19.23;;
72926;SDS011;61071;51.618;19.388;2022-11-15T15:52:13;35.83;;;19.60;;
72926;SDS011;61071;51.618;19.388;2022-11-15T15:54:39;26.58;;;16.42;;
72926;SDS011;61071;51.618;19.388;2022-11-15T15:57:05;31.67;;;17.65;;
72926;SDS011;61071;51.618;19.388;2022-11-15T15:59:33;26.77;;;15.93;;
72926;SDS011;61071;51.618;19.388;2022-11-15T16:01:59;27.33;;;16.75;;
72926;SDS011;61071;51.618;19.388;2022-11-15T16:04:25;27.75;;;15.82;;
72926;SDS011;61071;51.618;19.388;2022-11-15T16:06:51;22.33;;;14.63;;
72926;SDS011;61071;51.618;19.388;2022-11-15T16:09:19;37.72;;;18.52;;
72926;SDS011;61071;51.618;19.388;2022-11-15T16:12:08;26.13;;;14.98;;
72926;SDS011;61071;51.618;19.388;2022-11-15T16:14:34;33.05;;;16.77;;
72926;SDS011;61071;51.618;19.388;2022-11-15T16:17:00;30.88;;;18.02;;
72926;SDS011;61071;51.618;19.388;2022-11-15T16:19:26;31.10;;;18.23;;
72926;SDS011;61071;51.618;19.388;2022-11-15T16:21:52;29.17;;;17.23;;
72926;SDS011;61071;51.618;19.388;2022-11-15T16:24:18;31.95;;;16.80;;
72926;SDS011;61071;51.618;19.388;2022-11-15T16:26:46;37.60;;;19.23;;
72926;SDS011;61071;51.618;19.388;2022-11-15T16:29:13;32.10;;;17.73;;
72926;SDS011;61071;51.618;19.388;2022-11-15T16:31:39;34.50;;;18.35;;
72926;SDS011;61071;51.618;19.388;2022-11-15T16:34:05;45.75;;;22.65;;
72926;SDS011;61071;51.618;19.388;2022-11-15T16:36:32;36.03;;;19.70;;
72926;SDS011;61071;51.618;19.388;2022-11-15T16:38:59;52.42;;;21.05;;
72926;SDS011;61071;51.618;19.388;2022-11-15T16:41:29;45.15;;;21.17;;
72926;SDS011;61071;51.618;19.388;2022-11-15T16:43:55;37.63;;;19.13;;
72926;SDS011;61071;51.618;19.388;2022-11-15T16:46:22;59.78;;;24.95;;
72926;SDS011;61071;51.618;19.388;2022-11-15T16:48:50;47.72;;;20.38;;
72926;SDS011;61071;51.618;19.388;2022-11-15T16:51:18;46.78;;;21.48;;
72926;SDS011;61071;51.618;19.388;2022-11-15T16:53:44;49.30;;;21.70;;
72926;SDS011;61071;51.618;19.388;2022-11-15T16:58:51;37.35;;;20.20;;
72926;SDS011;61071;51.618;19.388;2022-11-15T17:01:22;44.10;;;20.73;;
72926;SDS011;61071;51.618;19.388;2022-11-15T17:03:53;45.33;;;21.23;;
72926;SDS011;61071;51.618;19.388;2022-11-15T17:06:20;38.58;;;20.20;;
72926;SDS011;61071;51.618;19.388;2022-11-15T17:08:47;48.15;;;24.02;;
72926;SDS011;61071;51.618;19.388;2022-11-15T17:11:15;46.83;;;23.13;;